sensor_id;sensor_type;location;lat;lon;timestamp;temperature;humidity
15834;DHT22;8017;50.812;4.934;2022-12-18T00:01:37;-5.70;99.90
15834;DHT22;8017;50.812;4.934;2022-12-18T00:04:39;-5.70;99.90
15834;DHT22;8017;50.812;4.934;2022-12-18T00:07:42;-5.80;99.90
15834;DHT22;8017;50.812;4.934;2022-12-18T00:10:44;-5.80;99.90
15834;DHT22;8017;50.812;4.934;2022-12-18T00:13:47;-5.70;99.90
15834;DHT22;8017;50.812;4.934;2022-12-18T00:16:49;-5.70;99.90
15834;DHT22;8017;50.812;4.934;2022-12-18T00:19:51;-5.60;99.90
15834;DHT22;8017;50.812;4.934;2022-12-18T00:22:54;-5.70;99.90
15834;DHT22;8017;50.812;4.934;2022-12-18T00:25:59;-5.60;99.90
15834;DHT22;8017;50.812;4.934;2022-12-18T00:29:03;-5.70;99.90
15834;DHT22;8017;50.812;4.934;2022-12-18T00:32:05;-5.70;99.90
15834;DHT22;8017;50.812;4.934;2022-12-18T00:35:07;-5.70;99.90
15834;DHT22;8017;50.812;4.934;2022-12-18T00:38:11;-5.80;99.90
15834;DHT22;8017;50.812;4.934;2022-12-18T00:41:15;-5.80;99.90
15834;DHT22;8017;50.812;4.934;2022-12-18T00:44:37;-5.80;99.90
15834;DHT22;8017;50.812;4.934;2022-12-18T00:47:39;-5.90;99.90
15834;DHT22;8017;50.812;4.934;2022-12-18T00:50:41;-5.90;99.90
15834;DHT22;8017;50.812;4.934;2022-12-18T00:53:44;-5.90;99.90
15834;DHT22;8017;50.812;4.934;2022-12-18T00:56:46;-5.90;99.90
15834;DHT22;8017;50.812;4.934;2022-12-18T00:59:48;-5.90;99.90
15834;DHT22;8017;50.812;4.934;2022-12-18T01:02:50;-5.90;99.90
15834;DHT22;8017;50.812;4.934;2022-12-18T01:05:52;-5.90;99.90
15834;DHT22;8017;50.812;4.934;2022-12-18T01:08:55;-5.90;99.90
15834;DHT22;8017;50.812;4.934;2022-12-18T01:11:57;-5.90;99.90
15834;DHT22;8017;50.812;4.934;2022-12-18T01:14:59;-5.90;99.90
15834;DHT22;8017;50.812;4.934;2022-12-18T01:18:01;-6.00;99.90
15834;DHT22;8017;50.812;4.934;2022-12-18T01:21:06;-6.00;99.90
15834;DHT22;8017;50.812;4.934;2022-12-18T01:24:12;-6.00;99.90
15834;DHT22;8017;50.812;4.934;2022-12-18T01:27:13;-6.00;99.90
15834;DHT22;8017;50.812;4.934;2022-12-18T01:30:15;-6.00;99.90
15834;DHT22;8017;50.812;4.934;2022-12-18T01:33:17;-6.10;99.90
15834;DHT22;8017;50.812;4.934;2022-12-18T01:36:22;-6.10;99.90
15834;DHT22;8017;50.812;4.934;2022-12-18T01:39:25;-6.00;99.90
15834;DHT22;8017;50.812;4.934;2022-12-18T01:42:27;-6.10;99.90
15834;DHT22;8017;50.812;4.934;2022-12-18T01:45:30;-6.10;99.90
15834;DHT22;8017;50.812;4.934;2022-12-18T01:48:33;-6.10;99.90
15834;DHT22;8017;50.812;4.934;2022-12-18T01:51:34;-6.10;99.90
15834;DHT22;8017;50.812;4.934;2022-12-18T01:54:38;-6.00;99.90
15834;DHT22;8017;50.812;4.934;2022-12-18T01:57:40;-6.10;99.90
15834;DHT22;8017;50.812;4.934;2022-12-18T02:00:43;-6.10;99.90
15834;DHT22;8017;50.812;4.934;2022-12-18T02:03:45;-6.00;99.90
15834;DHT22;8017;50.812;4.934;2022-12-18T02:06:50;-6.00;99.90
15834;DHT22;8017;50.812;4.934;2022-12-18T02:10:00;-6.00;99.90
15834;DHT22;8017;50.812;4.934;2022-12-18T02:13:12;-6.00;99.90
15834;DHT22;8017;50.812;4.934;2022-12-18T02:16:20;-5.90;99.90
15834;DHT22;8017;50.812;4.934;2022-12-18T02:19:53;-5.80;99.90
15834;DHT22;8017;50.812;4.934;2022-12-18T02:23:06;-5.70;99.90
15834;DHT22;8017;50.812;4.934;2022-12-18T02:26:18;-5.60;99.90
15834;DHT22;8017;50.812;4.934;2022-12-18T02:29:22;-5.60;99.90
15834;DHT22;8017;50.812;4.934;2022-12-18T02:32:30;-5.70;99.90
15834;DHT22;8017;50.812;4.934;2022-12-18T02:35:33;-5.70;99.90
15834;DHT22;8017;50.812;4.934;2022-12-18T02:38:36;-5.80;99.90
15834;DHT22;8017;50.812;4.934;2022-12-18T02:41:40;-5.80;99.90
15834;DHT22;8017;50.812;4.934;2022-12-18T02:44:43;-5.90;99.90
15834;DHT22;8017;50.812;4.934;2022-12-18T02:47:48;-5.90;99.90
15834;DHT22;8017;50.812;4.934;2022-12-18T02:50:58;-5.80;99.90
15834;DHT22;8017;50.812;4.934;2022-12-18T02:54:05;-5.80;99.90
15834;DHT22;8017;50.812;4.934;2022-12-18T02:57:18;-5.90;99.90
15834;DHT22;8017;50.812;4.934;2022-12-18T03:00:26;-6.00;99.90
15834;DHT22;8017;50.812;4.934;2022-12-18T03:03:33;-6.10;99.90
15834;DHT22;8017;50.812;4.934;2022-12-18T03:06:41;-6.20;99.90
15834;DHT22;8017;50.812;4.934;2022-12-18T03:09:49;-6.20;99.90
15834;DHT22;8017;50.812;4.934;2022-12-18T03:12:56;-6.20;99.90
15834;DHT22;8017;50.812;4.934;2022-12-18T03:16:02;-6.10;99.90
15834;DHT22;8017;50.812;4.934;2022-12-18T03:19:08;-6.10;99.90
15834;DHT22;8017;50.812;4.934;2022-12-18T03:22:13;-6.20;99.90
15834;DHT22;8017;50.812;4.934;2022-12-18T03:25:18;-6.10;99.90
15834;DHT22;8017;50.812;4.934;2022-12-18T03:28:23;-6.10;99.90
15834;DHT22;8017;50.812;4.934;2022-12-18T03:31:26;-6.10;99.90
15834;DHT22;8017;50.812;4.934;2022-12-18T03:34:32;-6.10;99.90
15834;DHT22;8017;50.812;4.934;2022-12-18T03:37:35;-6.20;99.90
15834;DHT22;8017;50.812;4.934;2022-12-18T03:40:45;-6.20;99.90
15834;DHT22;8017;50.812;4.934;2022-12-18T03:43:55;-6.20;99.90
15834;DHT22;8017;50.812;4.934;2022-12-18T03:47:09;-6.20;99.90
15834;DHT22;8017;50.812;4.934;2022-12-18T03:50:13;-6.10;99.90
15834;DHT22;8017;50.812;4.934;2022-12-18T03:53:26;-6.20;99.90
15834;DHT22;8017;50.812;4.934;2022-12-18T03:56:32;-6.20;99.90
15834;DHT22;8017;50.812;4.934;2022-12-18T03:59:38;-6.30;99.90
15834;DHT22;8017;50.812;4.934;2022-12-18T04:02:44;-6.30;99.90
15834;DHT22;8017;50.812;4.934;2022-12-18T04:05:48;-6.30;99.90
15834;DHT22;8017;50.812;4.934;2022-12-18T04:08:52;-6.30;99.90
15834;DHT22;8017;50.812;4.934;2022-12-18T04:11:54;-6.20;99.90
15834;DHT22;8017;50.812;4.934;2022-12-18T04:14:57;-6.20;99.90
15834;DHT22;8017;50.812;4.934;2022-12-18T04:17:59;-6.10;99.90
15834;DHT22;8017;50.812;4.934;2022-12-18T04:21:02;-6.10;99.90
15834;DHT22;8017;50.812;4.934;2022-12-18T04:24:04;-6.10;99.90
15834;DHT22;8017;50.812;4.934;2022-12-18T04:27:06;-6.10;99.90
15834;DHT22;8017;50.812;4.934;2022-12-18T04:30:11;-6.10;99.90
15834;DHT22;8017;50.812;4.934;2022-12-18T04:33:13;-6.10;99.90
15834;DHT22;8017;50.812;4.934;2022-12-18T04:36:18;-6.10;99.90
15834;DHT22;8017;50.812;4.934;2022-12-18T04:39:20;-6.00;99.90
15834;DHT22;8017;50.812;4.934;2022-12-18T04:42:21;-6.10;99.90
15834;DHT22;8017;50.812;4.934;2022-12-18T04:45:25;-6.10;99.90
15834;DHT22;8017;50.812;4.934;2022-12-18T04:48:27;-6.10;99.90
15834;DHT22;8017;50.812;4.934;2022-12-18T04:51:29;-6.10;99.90
15834;DHT22;8017;50.812;4.934;2022-12-18T04:54:31;-6.20;99.90
15834;DHT22;8017;50.812;4.934;2022-12-18T04:57:33;-6.20;99.90
15834;DHT22;8017;50.812;4.934;2022-12-18T05:00:36;-6.30;99.90
15834;DHT22;8017;50.812;4.934;2022-12-18T05:03:38;-6.40;99.90
15834;DHT22;8017;50.812;4.934;2022-12-18T05:06:40;-6.40;99.90
15834;DHT22;8017;50.812;4.934;2022-12-18T05:09:42;-6.40;99.90
15834;DHT22;8017;50.812;4.934;2022-12-18T05:12:44;-6.40;99.90
15834;DHT22;8017;50.812;4.934;2022-12-18T05:16:01;-6.40;99.90
15834;DHT22;8017;50.812;4.934;2022-12-18T05:19:03;-6.30;99.90
15834;DHT22;8017;50.812;4.934;2022-12-18T05:22:05;-6.30;99.90
15834;DHT22;8017;50.812;4.934;2022-12-18T05:25:07;-6.40;99.90
15834;DHT22;8017;50.812;4.934;2022-12-18T05:28:09;-6.30;99.90
15834;DHT22;8017;50.812;4.934;2022-12-18T05:31:13;-6.40;99.90
15834;DHT22;8017;50.812;4.934;2022-12-18T05:34:15;-6.40;99.90
15834;DHT22;8017;50.812;4.934;2022-12-18T05:37:17;-6.40;99.90
15834;DHT22;8017;50.812;4.934;2022-12-18T05:40:19;-6.40;99.90
15834;DHT22;8017;50.812;4.934;2022-12-18T05:43:22;-6.40;99.90
15834;DHT22;8017;50.812;4.934;2022-12-18T05:46:26;-6.40;99.90
15834;DHT22;8017;50.812;4.934;2022-12-18T05:49:28;-6.40;99.90
15834;DHT22;8017;50.812;4.934;2022-12-18T05:52:30;-6.40;99.90
15834;DHT22;8017;50.812;4.934;2022-12-18T05:55:33;-6.40;99.90
15834;DHT22;8017;50.812;4.934;2022-12-18T05:58:36;-6.50;99.90
15834;DHT22;8017;50.812;4.934;2022-12-18T06:01:39;-6.50;99.90
15834;DHT22;8017;50.812;4.934;2022-12-18T06:04:41;-6.50;99.90
15834;DHT22;8017;50.812;4.934;2022-12-18T06:07:43;-6.60;99.90
15834;DHT22;8017;50.812;4.934;2022-12-18T06:10:50;-6.50;99.90
15834;DHT22;8017;50.812;4.934;2022-12-18T06:13:54;-6.50;99.90
15834;DHT22;8017;50.812;4.934;2022-12-18T06:16:57;-6.60;99.90
15834;DHT22;8017;50.812;4.934;2022-12-18T06:19:59;-6.60;99.90
15834;DHT22;8017;50.812;4.934;2022-12-18T06:23:01;-6.70;99.90
15834;DHT22;8017;50.812;4.934;2022-12-18T06:26:04;-6.60;99.90
15834;DHT22;8017;50.812;4.934;2022-12-18T06:29:07;-6.70;99.90
15834;DHT22;8017;50.812;4.934;2022-12-18T06:32:10;-6.60;99.90
15834;DHT22;8017;50.812;4.934;2022-12-18T06:35:12;-6.60;99.90
15834;DHT22;8017;50.812;4.934;2022-12-18T06:38:14;-6.50;99.90
15834;DHT22;8017;50.812;4.934;2022-12-18T06:41:18;-6.60;99.90
15834;DHT22;8017;50.812;4.934;2022-12-18T06:44:20;-6.50;99.90
15834;DHT22;8017;50.812;4.934;2022-12-18T06:47:23;-6.50;99.90
15834;DHT22;8017;50.812;4.934;2022-12-18T06:50:25;-6.50;99.90
15834;DHT22;8017;50.812;4.934;2022-12-18T06:53:27;-6.50;99.90
15834;DHT22;8017;50.812;4.934;2022-12-18T06:56:30;-6.60;99.90
15834;DHT22;8017;50.812;4.934;2022-12-18T06:59:32;-6.60;99.90
15834;DHT22;8017;50.812;4.934;2022-12-18T07:02:35;-6.60;99.90
15834;DHT22;8017;50.812;4.934;2022-12-18T07:05:39;-6.60;99.90
15834;DHT22;8017;50.812;4.934;2022-12-18T07:08:41;-6.60;99.90
15834;DHT22;8017;50.812;4.934;2022-12-18T07:11:43;-6.70;99.90
15834;DHT22;8017;50.812;4.934;2022-12-18T07:14:45;-6.70;99.90
15834;DHT22;8017;50.812;4.934;2022-12-18T07:17:48;-6.70;99.90
15834;DHT22;8017;50.812;4.934;2022-12-18T07:20:50;-6.80;99.90
15834;DHT22;8017;50.812;4.934;2022-12-18T07:23:52;-6.80;99.90
15834;DHT22;8017;50.812;4.934;2022-12-18T07:26:54;-6.80;99.90
15834;DHT22;8017;50.812;4.934;2022-12-18T07:29:56;-6.70;99.90
15834;DHT22;8017;50.812;4.934;2022-12-18T07:32:59;-6.70;99.90
15834;DHT22;8017;50.812;4.934;2022-12-18T07:36:01;-6.70;99.90
15834;DHT22;8017;50.812;4.934;2022-12-18T07:39:03;-6.50;99.90
15834;DHT22;8017;50.812;4.934;2022-12-18T07:42:05;-6.50;99.90
15834;DHT22;8017;50.812;4.934;2022-12-18T07:45:25;-6.50;99.90
15834;DHT22;8017;50.812;4.934;2022-12-18T07:48:29;-6.60;99.90
15834;DHT22;8017;50.812;4.934;2022-12-18T07:51:31;-6.50;99.90
15834;DHT22;8017;50.812;4.934;2022-12-18T07:54:33;-6.50;99.90
15834;DHT22;8017;50.812;4.934;2022-12-18T07:57:35;-6.50;99.90
15834;DHT22;8017;50.812;4.934;2022-12-18T08:00:36;-6.50;99.90
15834;DHT22;8017;50.812;4.934;2022-12-18T08:03:40;-6.40;99.90
15834;DHT22;8017;50.812;4.934;2022-12-18T08:06:42;-6.40;99.90
15834;DHT22;8017;50.812;4.934;2022-12-18T08:09:44;-6.40;99.90
15834;DHT22;8017;50.812;4.934;2022-12-18T08:12:49;-6.40;99.90
15834;DHT22;8017;50.812;4.934;2022-12-18T08:15:56;-6.40;99.90
15834;DHT22;8017;50.812;4.934;2022-12-18T08:19:00;-6.30;99.90
15834;DHT22;8017;50.812;4.934;2022-12-18T08:22:01;-6.30;99.90
15834;DHT22;8017;50.812;4.934;2022-12-18T08:25:04;-6.20;99.90
15834;DHT22;8017;50.812;4.934;2022-12-18T08:28:06;-6.20;99.90
15834;DHT22;8017;50.812;4.934;2022-12-18T08:31:09;-6.10;99.90
15834;DHT22;8017;50.812;4.934;2022-12-18T08:34:12;-6.00;99.90
15834;DHT22;8017;50.812;4.934;2022-12-18T08:37:15;-5.90;99.90
15834;DHT22;8017;50.812;4.934;2022-12-18T08:40:17;-5.70;99.90
15834;DHT22;8017;50.812;4.934;2022-12-18T08:43:18;-5.60;99.90
15834;DHT22;8017;50.812;4.934;2022-12-18T08:46:39;-5.50;99.90
15834;DHT22;8017;50.812;4.934;2022-12-18T08:49:44;-5.40;99.90
15834;DHT22;8017;50.812;4.934;2022-12-18T08:52:46;-5.30;99.90
15834;DHT22;8017;50.812;4.934;2022-12-18T08:55:49;-5.30;99.90
15834;DHT22;8017;50.812;4.934;2022-12-18T08:58:52;-5.20;99.90
15834;DHT22;8017;50.812;4.934;2022-12-18T09:01:54;-5.00;99.90
15834;DHT22;8017;50.812;4.934;2022-12-18T09:04:57;-5.00;99.90
15834;DHT22;8017;50.812;4.934;2022-12-18T09:07:59;-4.90;99.90
15834;DHT22;8017;50.812;4.934;2022-12-18T09:11:01;-4.80;99.90
15834;DHT22;8017;50.812;4.934;2022-12-18T09:14:06;-4.70;99.90
15834;DHT22;8017;50.812;4.934;2022-12-18T09:17:08;-4.60;99.90
15834;DHT22;8017;50.812;4.934;2022-12-18T09:20:12;-4.50;99.90
15834;DHT22;8017;50.812;4.934;2022-12-18T09:23:14;-4.40;99.90
15834;DHT22;8017;50.812;4.934;2022-12-18T09:26:16;-4.30;99.90
15834;DHT22;8017;50.812;4.934;2022-12-18T09:29:18;-4.30;99.90
15834;DHT22;8017;50.812;4.934;2022-12-18T09:32:20;-4.20;99.90
15834;DHT22;8017;50.812;4.934;2022-12-18T09:35:23;-4.10;99.90
15834;DHT22;8017;50.812;4.934;2022-12-18T09:38:25;-3.90;99.90
15834;DHT22;8017;50.812;4.934;2022-12-18T09:41:38;-3.70;99.90
15834;DHT22;8017;50.812;4.934;2022-12-18T09:44:43;-3.60;99.90
15834;DHT22;8017;50.812;4.934;2022-12-18T09:47:48;-3.50;99.90
15834;DHT22;8017;50.812;4.934;2022-12-18T09:50:57;-3.40;99.90
15834;DHT22;8017;50.812;4.934;2022-12-18T09:54:01;-3.30;99.90
15834;DHT22;8017;50.812;4.934;2022-12-18T09:57:05;-3.20;99.90
15834;DHT22;8017;50.812;4.934;2022-12-18T10:00:16;-3.20;99.90
15834;DHT22;8017;50.812;4.934;2022-12-18T10:03:19;-3.00;99.90
15834;DHT22;8017;50.812;4.934;2022-12-18T10:06:26;-2.90;99.90
15834;DHT22;8017;50.812;4.934;2022-12-18T10:09:36;-2.80;99.90
15834;DHT22;8017;50.812;4.934;2022-12-18T10:12:43;-2.80;99.90
15834;DHT22;8017;50.812;4.934;2022-12-18T10:15:54;-2.70;99.90
15834;DHT22;8017;50.812;4.934;2022-12-18T10:19:10;-2.70;99.90
15834;DHT22;8017;50.812;4.934;2022-12-18T10:22:25;-2.60;99.90
15834;DHT22;8017;50.812;4.934;2022-12-18T10:25:36;-2.50;99.90
15834;DHT22;8017;50.812;4.934;2022-12-18T10:28:43;-2.30;99.90
15834;DHT22;8017;50.812;4.934;2022-12-18T10:31:46;-2.20;99.90
15834;DHT22;8017;50.812;4.934;2022-12-18T10:34:50;-2.20;99.90
15834;DHT22;8017;50.812;4.934;2022-12-18T10:38:06;-2.10;99.90
15834;DHT22;8017;50.812;4.934;2022-12-18T10:41:24;-2.00;99.90
15834;DHT22;8017;50.812;4.934;2022-12-18T10:44:27;-1.90;99.90
15834;DHT22;8017;50.812;4.934;2022-12-18T10:47:29;-1.90;99.90
15834;DHT22;8017;50.812;4.934;2022-12-18T10:50:33;-1.90;99.90
15834;DHT22;8017;50.812;4.934;2022-12-18T10:53:37;-1.90;99.90
15834;DHT22;8017;50.812;4.934;2022-12-18T10:56:39;-1.80;99.90
15834;DHT22;8017;50.812;4.934;2022-12-18T10:59:51;-1.70;99.90
15834;DHT22;8017;50.812;4.934;2022-12-18T11:02:54;-1.50;99.90
15834;DHT22;8017;50.812;4.934;2022-12-18T11:06:03;-1.50;99.90
15834;DHT22;8017;50.812;4.934;2022-12-18T11:09:20;-1.30;99.90
15834;DHT22;8017;50.812;4.934;2022-12-18T11:12:22;-1.20;99.90
15834;DHT22;8017;50.812;4.934;2022-12-18T11:15:27;-1.00;99.90
15834;DHT22;8017;50.812;4.934;2022-12-18T11:18:33;-1.00;99.90
15834;DHT22;8017;50.812;4.934;2022-12-18T11:21:39;-0.80;99.90
15834;DHT22;8017;50.812;4.934;2022-12-18T11:24:43;-0.80;99.90
15834;DHT22;8017;50.812;4.934;2022-12-18T11:27:48;-0.60;99.90
15834;DHT22;8017;50.812;4.934;2022-12-18T11:31:09;-0.50;99.90
15834;DHT22;8017;50.812;4.934;2022-12-18T11:34:19;-0.30;99.90
15834;DHT22;8017;50.812;4.934;2022-12-18T11:37:24;-0.20;99.90
15834;DHT22;8017;50.812;4.934;2022-12-18T11:40:31;0.00;99.90
15834;DHT22;8017;50.812;4.934;2022-12-18T11:43:38;0.10;99.90
15834;DHT22;8017;50.812;4.934;2022-12-18T11:46:46;0.10;99.90
15834;DHT22;8017;50.812;4.934;2022-12-18T11:49:50;0.20;99.90
15834;DHT22;8017;50.812;4.934;2022-12-18T11:52:52;0.20;99.90
15834;DHT22;8017;50.812;4.934;2022-12-18T11:56:02;0.20;99.90
15834;DHT22;8017;50.812;4.934;2022-12-18T11:59:12;0.30;99.90
15834;DHT22;8017;50.812;4.934;2022-12-18T12:02:33;0.30;99.90
15834;DHT22;8017;50.812;4.934;2022-12-18T12:05:45;0.50;99.90
15834;DHT22;8017;50.812;4.934;2022-12-18T12:08:59;0.60;99.90
15834;DHT22;8017;50.812;4.934;2022-12-18T12:12:16;0.80;99.90
15834;DHT22;8017;50.812;4.934;2022-12-18T12:15:31;0.80;99.90
15834;DHT22;8017;50.812;4.934;2022-12-18T12:18:49;0.90;99.90
15834;DHT22;8017;50.812;4.934;2022-12-18T12:21:55;1.00;99.90
15834;DHT22;8017;50.812;4.934;2022-12-18T12:25:08;1.10;99.90
15834;DHT22;8017;50.812;4.934;2022-12-18T12:28:28;1.10;99.90
15834;DHT22;8017;50.812;4.934;2022-12-18T12:31:47;1.20;99.90
15834;DHT22;8017;50.812;4.934;2022-12-18T12:35:02;1.30;99.90
15834;DHT22;8017;50.812;4.934;2022-12-18T12:38:10;1.40;99.90
15834;DHT22;8017;50.812;4.934;2022-12-18T12:41:16;1.40;99.90
15834;DHT22;8017;50.812;4.934;2022-12-18T12:44:42;1.40;99.90
15834;DHT22;8017;50.812;4.934;2022-12-18T12:47:46;1.30;99.90
15834;DHT22;8017;50.812;4.934;2022-12-18T12:50:50;1.40;99.90
15834;DHT22;8017;50.812;4.934;2022-12-18T12:54:03;1.40;99.90
15834;DHT22;8017;50.812;4.934;2022-12-18T12:57:11;1.50;99.90
15834;DHT22;8017;50.812;4.934;2022-12-18T13:00:18;1.50;99.90
15834;DHT22;8017;50.812;4.934;2022-12-18T13:03:27;1.50;99.90
15834;DHT22;8017;50.812;4.934;2022-12-18T13:06:39;1.60;99.90
15834;DHT22;8017;50.812;4.934;2022-12-18T13:13:23;1.70;99.90
15834;DHT22;8017;50.812;4.934;2022-12-18T13:16:26;1.70;99.90
15834;DHT22;8017;50.812;4.934;2022-12-18T13:19:29;1.90;99.90
15834;DHT22;8017;50.812;4.934;2022-12-18T13:22:35;2.00;99.90
15834;DHT22;8017;50.812;4.934;2022-12-18T13:25:38;1.90;99.90
15834;DHT22;8017;50.812;4.934;2022-12-18T13:28:53;1.90;99.90
15834;DHT22;8017;50.812;4.934;2022-12-18T13:32:01;1.90;99.90
15834;DHT22;8017;50.812;4.934;2022-12-18T13:35:37;1.90;99.90
15834;DHT22;8017;50.812;4.934;2022-12-18T13:38:40;2.00;99.90
15834;DHT22;8017;50.812;4.934;2022-12-18T13:41:44;2.00;99.90
15834;DHT22;8017;50.812;4.934;2022-12-18T13:44:46;2.00;99.90
15834;DHT22;8017;50.812;4.934;2022-12-18T13:47:50;2.00;99.90
15834;DHT22;8017;50.812;4.934;2022-12-18T13:50:56;2.00;99.90
15834;DHT22;8017;50.812;4.934;2022-12-18T13:54:00;1.90;99.90
15834;DHT22;8017;50.812;4.934;2022-12-18T13:57:04;1.90;99.90
15834;DHT22;8017;50.812;4.934;2022-12-18T14:00:24;1.70;99.90
15834;DHT22;8017;50.812;4.934;2022-12-18T14:03:29;1.60;99.90
15834;DHT22;8017;50.812;4.934;2022-12-18T14:06:31;1.50;99.90
15834;DHT22;8017;50.812;4.934;2022-12-18T14:09:36;1.40;99.90
15834;DHT22;8017;50.812;4.934;2022-12-18T14:12:38;1.40;99.90
15834;DHT22;8017;50.812;4.934;2022-12-18T14:16:00;1.30;99.90
15834;DHT22;8017;50.812;4.934;2022-12-18T14:19:08;1.40;99.90
15834;DHT22;8017;50.812;4.934;2022-12-18T14:22:16;1.40;99.90
15834;DHT22;8017;50.812;4.934;2022-12-18T14:25:20;1.40;99.90
15834;DHT22;8017;50.812;4.934;2022-12-18T14:28:22;1.50;99.90
15834;DHT22;8017;50.812;4.934;2022-12-18T14:31:27;1.40;99.90
15834;DHT22;8017;50.812;4.934;2022-12-18T14:34:31;1.30;99.90
15834;DHT22;8017;50.812;4.934;2022-12-18T14:37:33;1.20;99.90
15834;DHT22;8017;50.812;4.934;2022-12-18T14:40:35;1.20;99.90
15834;DHT22;8017;50.812;4.934;2022-12-18T14:43:39;1.10;99.90
15834;DHT22;8017;50.812;4.934;2022-12-18T14:46:43;1.20;99.90
15834;DHT22;8017;50.812;4.934;2022-12-18T14:49:47;1.10;99.90
15834;DHT22;8017;50.812;4.934;2022-12-18T14:52:49;1.10;99.90
15834;DHT22;8017;50.812;4.934;2022-12-18T14:55:52;1.00;99.90
15834;DHT22;8017;50.812;4.934;2022-12-18T14:58:55;1.10;99.90
15834;DHT22;8017;50.812;4.934;2022-12-18T15:02:01;1.10;99.90
15834;DHT22;8017;50.812;4.934;2022-12-18T15:05:17;1.10;99.90
15834;DHT22;8017;50.812;4.934;2022-12-18T15:08:30;1.10;99.90
15834;DHT22;8017;50.812;4.934;2022-12-18T15:11:35;1.00;99.90
15834;DHT22;8017;50.812;4.934;2022-12-18T15:14:39;1.00;99.90
15834;DHT22;8017;50.812;4.934;2022-12-18T15:17:42;0.90;99.90
15834;DHT22;8017;50.812;4.934;2022-12-18T15:20:47;1.10;99.90
15834;DHT22;8017;50.812;4.934;2022-12-18T15:23:50;1.00;99.90
15834;DHT22;8017;50.812;4.934;2022-12-18T15:26:53;0.90;99.90
15834;DHT22;8017;50.812;4.934;2022-12-18T15:30:17;0.90;99.90
15834;DHT22;8017;50.812;4.934;2022-12-18T15:33:24;0.80;99.90
15834;DHT22;8017;50.812;4.934;2022-12-18T15:36:28;0.90;99.90
15834;DHT22;8017;50.812;4.934;2022-12-18T15:39:31;0.90;99.90
15834;DHT22;8017;50.812;4.934;2022-12-18T15:42:32;0.90;99.90
15834;DHT22;8017;50.812;4.934;2022-12-18T15:45:52;0.80;99.90
15834;DHT22;8017;50.812;4.934;2022-12-18T15:48:55;0.80;99.90
15834;DHT22;8017;50.812;4.934;2022-12-18T15:51:59;0.80;99.90
15834;DHT22;8017;50.812;4.934;2022-12-18T15:55:01;0.80;99.90
15834;DHT22;8017;50.812;4.934;2022-12-18T15:58:26;0.90;99.90
15834;DHT22;8017;50.812;4.934;2022-12-18T16:01:29;0.90;99.90
15834;DHT22;8017;50.812;4.934;2022-12-18T16:04:31;0.90;99.90
15834;DHT22;8017;50.812;4.934;2022-12-18T16:07:35;1.00;99.90
15834;DHT22;8017;50.812;4.934;2022-12-18T16:10:37;1.10;99.90
15834;DHT22;8017;50.812;4.934;2022-12-18T16:13:39;1.00;99.90
15834;DHT22;8017;50.812;4.934;2022-12-18T16:16:40;1.00;99.90
15834;DHT22;8017;50.812;4.934;2022-12-18T16:19:42;1.10;99.90
15834;DHT22;8017;50.812;4.934;2022-12-18T16:22:47;1.20;99.90
15834;DHT22;8017;50.812;4.934;2022-12-18T16:25:49;1.10;99.90
15834;DHT22;8017;50.812;4.934;2022-12-18T16:28:52;1.10;99.90
15834;DHT22;8017;50.812;4.934;2022-12-18T16:31:54;1.10;99.90
15834;DHT22;8017;50.812;4.934;2022-12-18T16:34:59;1.10;99.90
15834;DHT22;8017;50.812;4.934;2022-12-18T16:38:03;1.10;99.90
15834;DHT22;8017;50.812;4.934;2022-12-18T16:41:17;1.10;99.90
15834;DHT22;8017;50.812;4.934;2022-12-18T16:44:35;1.10;99.90
15834;DHT22;8017;50.812;4.934;2022-12-18T16:47:37;1.20;99.90
15834;DHT22;8017;50.812;4.934;2022-12-18T16:50:39;1.30;99.90
15834;DHT22;8017;50.812;4.934;2022-12-18T16:53:43;1.40;99.90
15834;DHT22;8017;50.812;4.934;2022-12-18T16:56:45;1.30;99.90
15834;DHT22;8017;50.812;4.934;2022-12-18T16:59:49;1.40;99.90
15834;DHT22;8017;50.812;4.934;2022-12-18T17:02:51;1.40;99.90
15834;DHT22;8017;50.812;4.934;2022-12-18T17:05:54;1.40;99.90
15834;DHT22;8017;50.812;4.934;2022-12-18T17:09:06;1.40;99.90
15834;DHT22;8017;50.812;4.934;2022-12-18T17:12:09;1.40;99.90
15834;DHT22;8017;50.812;4.934;2022-12-18T17:15:11;1.40;99.90
15834;DHT22;8017;50.812;4.934;2022-12-18T17:18:13;1.50;99.90
15834;DHT22;8017;50.812;4.934;2022-12-18T17:21:15;1.40;99.90
15834;DHT22;8017;50.812;4.934;2022-12-18T17:24:19;1.40;99.90
15834;DHT22;8017;50.812;4.934;2022-12-18T17:27:21;1.50;99.90
15834;DHT22;8017;50.812;4.934;2022-12-18T17:30:23;1.50;99.90
15834;DHT22;8017;50.812;4.934;2022-12-18T17:33:25;1.50;99.90
15834;DHT22;8017;50.812;4.934;2022-12-18T17:36:27;1.50;99.90
15834;DHT22;8017;50.812;4.934;2022-12-18T17:39:32;1.60;99.90
15834;DHT22;8017;50.812;4.934;2022-12-18T17:42:33;1.50;99.90
15834;DHT22;8017;50.812;4.934;2022-12-18T17:45:36;1.50;99.90
15834;DHT22;8017;50.812;4.934;2022-12-18T17:48:38;1.50;99.90
15834;DHT22;8017;50.812;4.934;2022-12-18T17:51:41;1.50;99.90
15834;DHT22;8017;50.812;4.934;2022-12-18T17:54:44;1.50;99.90
15834;DHT22;8017;50.812;4.934;2022-12-18T17:57:46;1.50;99.90
15834;DHT22;8017;50.812;4.934;2022-12-18T18:00:48;1.70;99.90
15834;DHT22;8017;50.812;4.934;2022-12-18T18:03:51;1.70;99.90
15834;DHT22;8017;50.812;4.934;2022-12-18T18:06:53;1.70;99.90
15834;DHT22;8017;50.812;4.934;2022-12-18T18:09:56;1.80;99.90
15834;DHT22;8017;50.812;4.934;2022-12-18T18:12:58;1.80;99.90
15834;DHT22;8017;50.812;4.934;2022-12-18T18:16:17;1.80;99.90
15834;DHT22;8017;50.812;4.934;2022-12-18T18:19:21;1.80;99.90
15834;DHT22;8017;50.812;4.934;2022-12-18T18:22:23;1.80;99.90
15834;DHT22;8017;50.812;4.934;2022-12-18T18:25:26;1.70;99.90
15834;DHT22;8017;50.812;4.934;2022-12-18T18:28:28;1.90;99.90
15834;DHT22;8017;50.812;4.934;2022-12-18T18:31:31;1.90;99.90
15834;DHT22;8017;50.812;4.934;2022-12-18T18:34:34;1.70;99.90
15834;DHT22;8017;50.812;4.934;2022-12-18T18:37:36;1.70;99.90
15834;DHT22;8017;50.812;4.934;2022-12-18T18:40:39;1.60;99.90
15834;DHT22;8017;50.812;4.934;2022-12-18T18:43:41;1.40;99.90
15834;DHT22;8017;50.812;4.934;2022-12-18T18:46:43;1.60;99.90
15834;DHT22;8017;50.812;4.934;2022-12-18T18:49:45;1.60;99.90
15834;DHT22;8017;50.812;4.934;2022-12-18T18:52:47;1.70;99.90
15834;DHT22;8017;50.812;4.934;2022-12-18T18:55:50;1.60;99.90
15834;DHT22;8017;50.812;4.934;2022-12-18T18:58:53;1.50;99.90
15834;DHT22;8017;50.812;4.934;2022-12-18T19:01:55;1.50;99.90
15834;DHT22;8017;50.812;4.934;2022-12-18T19:04:57;1.60;99.90
15834;DHT22;8017;50.812;4.934;2022-12-18T19:07:59;1.50;99.90
15834;DHT22;8017;50.812;4.934;2022-12-18T19:11:04;1.50;99.90
15834;DHT22;8017;50.812;4.934;2022-12-18T19:14:26;1.60;99.90
15834;DHT22;8017;50.812;4.934;2022-12-18T19:17:27;1.60;99.90
15834;DHT22;8017;50.812;4.934;2022-12-18T19:20:29;1.60;99.90
15834;DHT22;8017;50.812;4.934;2022-12-18T19:23:31;1.60;99.90
15834;DHT22;8017;50.812;4.934;2022-12-18T19:26:35;1.50;99.90
15834;DHT22;8017;50.812;4.934;2022-12-18T19:29:38;1.40;99.90
15834;DHT22;8017;50.812;4.934;2022-12-18T19:32:39;1.50;99.90
15834;DHT22;8017;50.812;4.934;2022-12-18T19:35:41;1.50;99.90
15834;DHT22;8017;50.812;4.934;2022-12-18T19:38:43;1.60;99.90
15834;DHT22;8017;50.812;4.934;2022-12-18T19:41:47;1.50;99.90
15834;DHT22;8017;50.812;4.934;2022-12-18T19:44:49;1.60;99.90
15834;DHT22;8017;50.812;4.934;2022-12-18T19:47:51;1.70;99.90
15834;DHT22;8017;50.812;4.934;2022-12-18T19:50:53;1.70;99.90
15834;DHT22;8017;50.812;4.934;2022-12-18T19:53:56;1.80;99.90
15834;DHT22;8017;50.812;4.934;2022-12-18T19:56:59;1.80;99.90
15834;DHT22;8017;50.812;4.934;2022-12-18T20:00:03;1.80;99.90